Time;durP1;ratioP1;P1;durP2;ratioP2;P2;SDS_P1;SDS_P2;PMS_P1;PMS_P2;Temp;Humidity;BMP_temperature;BMP_pressure;BME280_temperature;BME280_humidity;BME280_pressure;Samples;Min_cycle;Max_cycle;Signal;HPM_P1;HPM_P2
2022/07/14 00:00:58;;;;;;;;;1.33;1.00;;;;;23.12;46.94;98471.34;4921820;28;102469;-65
2022/07/14 00:03:25;;;;;;;;;0.33;0.33;;;;;23.12;47.08;98474.09;4903618;28;104153;-65
2022/07/14 00:05:53;;;;;;;;;0.00;0.00;;;;;23.11;47.00;98475.19;4905985;28;102207;-65
2022/07/14 00:08:20;;;;;;;;;0.00;0.00;;;;;23.11;46.98;98471.63;4900859;28;104028;-65
2022/07/14 00:10:47;;;;;;;;;0.00;0.00;;;;;23.10;46.86;98473.53;4917984;28;102203;-65
2022/07/14 00:13:15;;;;;;;;;0.67;0.67;;;;;23.10;47.10;98470.78;4911618;28;104424;-65
2022/07/14 00:15:42;;;;;;;;;0.00;0.00;;;;;23.09;47.03;98466.41;4900898;28;102612;-65
2022/07/14 00:18:09;;;;;;;;;0.00;0.00;;;;;23.08;47.08;98461.16;4914512;28;104054;-65
2022/07/14 00:20:37;;;;;;;;;0.00;0.00;;;;;23.10;46.94;98467.19;4916238;28;103021;-65
2022/07/14 00:23:04;;;;;;;;;0.00;0.00;;;;;23.09;47.05;98466.41;4915488;28;102318;-65
2022/07/14 00:25:31;;;;;;;;;0.00;0.00;;;;;23.09;47.18;98466.41;4916736;28;103405;-65
2022/07/14 00:27:58;;;;;;;;;0.00;0.00;;;;;23.08;46.99;98459.22;4918673;28;104273;-65
2022/07/14 00:30:26;;;;;;;;;0.00;0.00;;;;;23.08;47.06;98470.25;4917116;28;102066;-65
2022/07/14 00:32:54;;;;;;;;;0.00;0.00;;;;;23.09;47.01;98458.13;4913752;28;102048;-65
2022/07/14 00:35:21;;;;;;;;;0.00;0.00;;;;;23.08;47.11;98452.88;4908427;28;104682;-65
2022/07/14 00:37:48;;;;;;;;;0.00;0.00;;;;;23.09;47.04;98454.53;4914760;28;104137;-65
2022/07/14 00:40:17;;;;;;;;;0.00;0.00;;;;;23.08;46.98;98459.22;4910197;28;102306;-65
2022/07/14 00:42:48;;;;;;;;;0.00;0.00;;;;;23.08;47.02;98459.22;4912035;28;102290;-65
2022/07/14 00:45:17;;;;;;;;;1.00;0.00;;;;;23.07;47.06;98460.34;4915502;28;102137;-65
2022/07/14 00:47:44;;;;;;;;;1.00;0.00;;;;;23.07;46.83;98449.28;4908193;28;104263;-65
2022/07/14 00:50:12;;;;;;;;;0.00;0.00;;;;;23.07;47.07;98445.72;4913783;28;102271;-65
2022/07/14 00:52:40;;;;;;;;;0.00;0.00;;;;;23.07;47.07;98446.53;4916687;28;102152;-65
2022/07/14 00:55:08;;;;;;;;;0.00;0.00;;;;;23.06;46.96;98453.16;4907404;28;102448;-65
2022/07/14 00:57:36;;;;;;;;;0.67;0.67;;;;;23.06;46.89;98442.13;4916169;28;104062;-65
2022/07/14 01:00:05;;;;;;;;;1.00;1.00;;;;;23.07;47.18;98451.22;4894826;28;102548;-64
2022/07/14 01:02:32;;;;;;;;;0.33;0.33;;;;;23.07;47.05;98448.47;4906229;28;102400;-65
2022/07/14 01:04:59;;;;;;;;;1.00;1.00;;;;;23.07;46.97;98452.06;4915697;28;102387;-65
2022/07/14 01:07:26;;;;;;;;;0.00;0.00;;;;;23.06;46.99;98450.41;4900696;28;104454;-65
2022/07/14 01:09:54;;;;;;;;;0.67;0.67;;;;;23.07;46.90;98440.19;4905303;28;102790;-65
2022/07/14 01:12:21;;;;;;;;;0.00;0.00;;;;;23.07;47.06;98449.28;4909638;28;102133;-65
2022/07/14 01:14:48;;;;;;;;;0.00;0.00;;;;;23.07;47.05;98441.03;4914597;28;102211;-65
2022/07/14 01:17:15;;;;;;;;;0.00;0.00;;;;;23.08;47.15;98441.84;4912438;28;103184;-65
2022/07/14 01:19:43;;;;;;;;;0.00;0.00;;;;;23.06;47.15;98442.13;4911844;28;102858;-66
2022/07/14 01:22:10;;;;;;;;;0.00;0.00;;;;;23.06;47.08;98431.09;4909512;28;102444;-65
2022/07/14 01:24:37;;;;;;;;;1.00;0.00;;;;;23.06;47.12;98428.34;4915188;28;102406;-65
2022/07/14 01:27:04;;;;;;;;;1.00;1.00;;;;;23.06;47.07;98433.03;4910889;28;104230;-64
2022/07/14 01:29:32;;;;;;;;;0.00;0.00;;;;;23.05;47.24;98431.41;4915482;28;102110;-65
2022/07/14 01:31:59;;;;;;;;;1.00;1.00;;;;;23.05;47.16;98434.97;4910573;28;102549;-65
2022/07/14 01:34:29;;;;;;;;;0.00;0.00;;;;;23.05;47.07;98431.41;4914895;28;102343;-65
2022/07/14 01:36:57;;;;;;;;;1.00;1.00;;;;;23.07;47.11;98431.91;4909365;28;103832;-65
2022/07/14 01:39:24;;;;;;;;;0.00;0.00;;;;;23.05;47.25;98428.66;4931323;28;102111;-65
2022/07/14 01:41:51;;;;;;;;;0.00;0.00;;;;;23.07;47.23;98435.50;4914613;28;102176;-64
2022/07/14 01:44:18;;;;;;;;;0.00;0.00;;;;;23.06;47.25;98431.09;4909810;28;102081;-64
2022/07/14 01:46:45;;;;;;;;;0.00;0.00;;;;;23.06;46.98;98422.00;4910537;28;104241;-65
2022/07/14 01:49:13;;;;;;;;;1.00;1.00;;;;;23.06;47.15;98428.34;4909124;28;102434;-64
2022/07/14 01:51:40;;;;;;;;;0.00;0.00;;;;;23.05;47.14;98415.69;4912454;28;102385;-65
2022/07/14 01:54:07;;;;;;;;;1.00;0.00;;;;;23.06;47.14;98422.00;4917578;28;102494;-65
2022/07/14 01:56:41;;;;;;;;;0.00;0.00;;;;;23.06;47.18;98417.31;4914455;28;104076;-65
2022/07/14 01:59:09;;;;;;;;;1.00;0.00;;;;;23.05;47.12;98409.34;4917079;28;103003;-65
2022/07/14 02:01:42;;;;;;;;;0.00;0.00;;;;;23.05;47.00;98415.69;4914648;28;102314;-65
2022/07/14 02:04:13;;;;;;;;;0.00;0.00;;;;;23.05;46.93;98410.16;4921079;28;102404;-65
2022/07/14 02:06:42;;;;;;;;;0.00;0.00;;;;;23.05;47.00;98417.59;4913019;28;104019;-65
2022/07/14 02:09:09;;;;;;;;;1.00;1.00;;;;;23.05;47.16;98407.41;4918654;28;102465;-65
2022/07/14 02:14:24;;;;;;;;;0.00;0.00;;;;;23.07;47.00;98409.84;4919720;28;102209;-65
2022/07/14 02:16:52;;;;;;;;;0.00;0.00;;;;;23.06;47.04;98411.78;4908977;28;103952;-65
2022/07/14 02:19:19;;;;;;;;;1.00;1.00;;;;;23.07;47.06;98409.84;4910886;28;102869;-65
2022/07/14 02:21:47;;;;;;;;;0.00;0.00;;;;;23.05;47.12;98407.41;4909457;28;102452;-65
2022/07/14 02:24:14;;;;;;;;;0.33;0.33;;;;;23.04;47.21;98410.44;4908759;28;102253;-65
2022/07/14 02:26:42;;;;;;;;;1.00;1.00;;;;;23.06;47.18;98410.97;4913723;28;104128;-65
2022/07/14 02:29:09;;;;;;;;;1.00;0.00;;;;;23.05;47.21;98412.91;4911735;28;102334;-65
2022/07/14 02:31:37;;;;;;;;;0.00;0.00;;;;;23.05;47.19;98410.16;4920609;28;102464;-65
2022/07/14 02:34:04;;;;;;;;;0.00;0.00;;;;;23.04;47.17;98411.25;4920620;28;102483;-64
2022/07/14 02:36:32;;;;;;;;;0.33;0.33;;;;;23.04;47.08;98403.00;4922166;28;104084;-64
2022/07/14 02:38:59;;;;;;;;;0.33;0.00;;;;;23.04;47.36;98408.50;4908395;28;102331;-65
2022/07/14 02:41:26;;;;;;;;;0.00;0.00;;;;;23.03;47.02;98401.34;4920594;28;102188;-65
2022/07/14 02:43:53;;;;;;;;;0.00;0.00;;;;;23.05;47.02;98410.16;4924127;28;102479;-65
2022/07/14 02:46:20;;;;;;;;;0.00;0.00;;;;;23.05;47.27;98409.34;4918687;28;104055;-65
2022/07/14 02:48:48;;;;;;;;;0.00;0.00;;;;;23.06;47.08;98411.78;4916358;28;102533;-65
2022/07/14 02:51:15;;;;;;;;;0.00;0.00;;;;;23.08;46.97;98408.75;4919846;28;102267;-65
2022/07/14 02:53:42;;;;;;;;;0.67;0.67;;;;;23.07;47.18;98412.63;4917437;28;103077;-65
2022/07/14 02:56:09;;;;;;;;;1.00;1.00;;;;;23.05;47.09;98410.16;4923638;28;103699;-65
2022/07/14 02:58:36;;;;;;;;;1.00;0.00;;;;;23.05;47.24;98421.19;4940253;28;102740;-65
2022/07/14 03:01:06;;;;;;;;;1.00;0.00;;;;;23.05;47.25;98415.69;4918617;28;102542;-65
2022/07/14 03:03:35;;;;;;;;;0.00;0.00;;;;;23.04;47.11;98408.50;4921109;28;102460;-63
2022/07/14 03:06:16;;;;;;;;;0.00;0.00;;;;;23.04;47.14;98410.44;4921808;28;104059;-65
2022/07/14 03:08:43;;;;;;;;;1.00;0.00;;;;;23.04;47.16;98413.19;4924423;28;102935;-65
2022/07/14 03:11:10;;;;;;;;;0.00;0.00;;;;;23.05;47.08;98412.09;4919342;28;102144;-65
2022/07/14 03:13:37;;;;;;;;;0.00;0.00;;;;;23.04;47.17;98416.78;4924557;28;102622;-65
2022/07/14 03:16:08;;;;;;;;;0.00;0.00;;;;;23.05;47.19;98412.09;4922721;28;104225;-65
2022/07/14 03:18:41;;;;;;;;;0.00;0.00;;;;;23.03;47.16;98409.59;4921344;28;102864;-65
2022/07/14 03:21:09;;;;;;;;;0.00;0.00;;;;;23.04;47.22;98414.03;4919166;28;102280;-65
2022/07/14 03:23:37;;;;;;;;;0.00;0.00;;;;;23.05;47.08;98412.91;4924352;28;103554;-65
2022/07/14 03:26:04;;;;;;;;;0.00;0.00;;;;;23.05;47.39;98412.91;4921059;28;104056;-65
2022/07/14 03:28:31;;;;;;;;;0.00;0.00;;;;;23.05;47.08;98414.84;4925205;28;103927;-65
2022/07/14 03:30:59;;;;;;;;;0.00;0.00;;;;;23.04;47.13;98425.06;4918874;28;102345;-65
2022/07/14 03:33:26;;;;;;;;;0.00;0.00;;;;;23.03;47.09;98415.13;4919897;28;102225;-65
2022/07/14 03:35:53;;;;;;;;;0.00;0.00;;;;;23.02;47.25;98405.19;4915173;28;104157;-65
2022/07/14 03:38:20;;;;;;;;;0.00;0.00;;;;;23.02;47.19;98405.19;4917452;28;102264;-65
2022/07/14 03:41:04;;;;;;;;;1.33;0.00;;;;;23.03;47.19;98397.75;4914365;28;103189;-64
2022/07/14 03:43:33;;;;;;;;;0.00;0.00;;;;;23.01;47.27;98405.50;4917014;28;106039;-64
2022/07/14 03:46:01;;;;;;;;;0.00;0.00;;;;;23.02;47.12;98399.69;4917503;28;108950;-65
2022/07/14 03:48:28;;;;;;;;;0.00;0.00;;;;;23.02;47.37;98405.19;4917320;28;102011;-64
2022/07/14 03:50:55;;;;;;;;;1.00;1.00;;;;;23.03;47.19;98411.53;4917904;28;102126;-65
2022/07/14 03:53:22;;;;;;;;;0.00;0.00;;;;;23.02;47.18;98404.38;4917202;28;102195;-65
2022/07/14 03:55:49;;;;;;;;;1.00;1.00;;;;;23.04;47.19;98402.16;4915641;28;103756;-65
2022/07/14 03:58:19;;;;;;;;;0.00;0.00;;;;;23.04;47.34;98397.47;4915535;28;102452;-65
2022/07/14 04:00:46;;;;;;;;;0.00;0.00;;;;;23.03;47.28;98406.03;4916685;28;102322;-65
2022/07/14 04:03:13;;;;;;;;;0.00;0.00;;;;;23.01;47.12;98400.78;4916944;28;102334;-65
2022/07/14 04:05:41;;;;;;;;;0.67;0.67;;;;;23.01;47.30;98398.03;4914545;28;104064;-65
2022/07/14 04:08:11;;;;;;;;;1.00;1.00;;;;;23.02;47.20;98410.72;4915422;28;102433;-65
2022/07/14 04:10:38;;;;;;;;;0.00;0.00;;;;;23.03;47.16;98417.88;4911939;28;106228;-65
2022/07/14 04:13:05;;;;;;;;;0.00;0.00;;;;;23.04;47.27;98416.78;4915672;28;102467;-65
2022/07/14 04:15:32;;;;;;;;;0.00;0.00;;;;;23.02;47.12;98416.22;4917088;28;104015;-65
2022/07/14 04:17:59;;;;;;;;;1.00;1.00;;;;;23.02;47.36;98421.75;4918938;28;102297;-65
2022/07/14 04:20:26;;;;;;;;;1.67;1.00;;;;;23.04;47.10;98425.06;4918562;28;102391;-65
2022/07/14 04:22:54;;;;;;;;;0.00;0.00;;;;;23.03;47.15;98423.41;4916488;28;103328;-65
2022/07/14 04:25:21;;;;;;;;;0.00;0.00;;;;;23.04;47.16;98419.53;4913667;28;104334;-65
2022/07/14 04:27:48;;;;;;;;;0.67;0.00;;;;;23.02;47.26;98419.00;4918874;28;102351;-65
2022/07/14 04:30:15;;;;;;;;;0.00;0.00;;;;;23.05;47.19;98414.84;4918255;28;102405;-65
2022/07/14 04:32:42;;;;;;;;;0.00;0.00;;;;;23.04;47.15;98427.00;4911492;28;102977;-65
2022/07/14 04:35:09;;;;;;;;;0.00;0.00;;;;;23.02;47.30;98416.22;4915845;28;104048;-64
2022/07/14 04:37:38;;;;;;;;;0.00;0.00;;;;;23.01;47.16;98420.09;4912783;28;103576;-65
2022/07/14 04:40:06;;;;;;;;;0.00;0.00;;;;;23.02;47.15;98427.25;4908245;28;102065;-66
2022/07/14 04:42:33;;;;;;;;;0.00;0.00;;;;;23.02;47.20;98421.75;4915592;28;104116;-65
2022/07/14 04:45:00;;;;;;;;;0.00;0.00;;;;;23.03;47.26;98422.56;4916568;28;104235;-65
2022/07/14 04:47:27;;;;;;;;;0.00;0.00;;;;;23.02;47.29;98423.69;4910489;28;102607;-65
2022/07/14 04:52:45;;;;;;;;;0.33;0.33;;;;;23.02;47.25;98419.00;4909343;28;102454;-65
2022/07/14 04:55:12;;;;;;;;;0.00;0.00;;;;;23.02;47.25;98419.00;4906544;28;106187;-65
2022/07/14 04:57:39;;;;;;;;;0.00;0.00;;;;;23.03;47.26;98417.88;4911789;28;102185;-65
2022/07/14 05:00:08;;;;;;;;;0.00;0.00;;;;;23.03;47.27;98422.56;4919523;28;102271;-65
2022/07/14 05:02:35;;;;;;;;;0.00;0.00;;;;;23.04;47.19;98430.56;4920976;28;102690;-64
2022/07/14 05:05:03;;;;;;;;;0.67;0.67;;;;;23.05;47.14;98434.97;4923065;28;104057;-65
2022/07/14 05:07:30;;;;;;;;;1.00;1.00;;;;;23.05;47.16;98431.41;4915801;28;102232;-65
2022/07/14 05:09:57;;;;;;;;;0.00;0.00;;;;;23.04;47.14;98430.56;4916645;28;102403;-65
2022/07/14 05:12:24;;;;;;;;;0.00;0.00;;;;;23.04;47.27;98435.25;4919034;28;102459;-65
2022/07/14 05:14:51;;;;;;;;;0.00;0.00;;;;;23.04;47.34;98435.25;4914283;28;104116;-65
2022/07/14 05:17:18;;;;;;;;;0.00;0.00;;;;;23.05;47.09;98428.66;4921256;28;103270;-65
2022/07/14 05:19:51;;;;;;;;;0.00;0.00;;;;;23.05;47.26;98434.97;4917670;28;102655;-65
2022/07/14 05:22:18;;;;;;;;;0.67;0.67;;;;;23.04;47.38;98425.06;4920508;28;102443;-65
2022/07/14 05:24:45;;;;;;;;;0.00;0.00;;;;;23.03;47.16;98417.88;4917058;28;104181;-64
2022/07/14 05:27:13;;;;;;;;;0.00;0.00;;;;;23.04;47.34;98418.72;4910579;28;102467;-65
2022/07/14 05:29:40;;;;;;;;;0.00;0.00;;;;;23.04;47.26;98425.06;4929888;28;102203;-65
2022/07/14 05:32:07;;;;;;;;;0.00;0.00;;;;;23.05;47.32;98426.72;4918537;28;102700;-65
2022/07/14 05:34:40;;;;;;;;;0.00;0.00;;;;;23.05;47.14;98429.47;4915605;28;104043;-63
2022/07/14 05:37:08;;;;;;;;;0.00;0.00;;;;;23.07;47.21;98421.72;4931489;28;102168;-65
2022/07/14 05:39:35;;;;;;;;;0.00;0.00;;;;;23.08;47.33;98430.81;4916266;28;102084;-63
2022/07/14 05:42:03;;;;;;;;;0.00;0.00;;;;;23.06;47.14;98433.84;4917674;28;102236;-65
2022/07/14 05:44:31;;;;;;;;;0.00;0.00;;;;;23.06;47.05;98433.84;4914749;28;108619;-65
2022/07/14 05:46:59;;;;;;;;;0.33;0.33;;;;;23.06;47.25;98433.84;4915256;28;102190;-65
2022/07/14 05:49:26;;;;;;;;;0.00;0.00;;;;;23.06;47.21;98439.38;4917810;28;102396;-65
2022/07/14 05:51:53;;;;;;;;;0.00;0.00;;;;;23.06;47.28;98431.09;4917848;28;104253;-65
2022/07/14 05:54:20;;;;;;;;;0.00;0.00;;;;;23.06;47.29;98427.50;4915125;28;103838;-64
2022/07/14 05:56:48;;;;;;;;;0.00;0.00;;;;;23.06;47.14;98431.09;4916575;28;102297;-64
2022/07/14 05:59:15;;;;;;;;;0.00;0.00;;;;;23.05;47.24;98426.72;4919595;28;102435;-64
2022/07/14 06:02:03;;;;;;;;;0.00;0.00;;;;;23.05;47.26;98421.19;4914914;28;103197;-64
2022/07/14 06:04:31;;;;;;;;;0.33;0.00;;;;;23.07;47.32;98423.66;4916900;28;108967;-65
2022/07/14 06:06:58;;;;;;;;;0.00;0.00;;;;;23.07;47.04;98426.41;4913564;28;102372;-66
2022/07/14 06:09:25;;;;;;;;;0.00;0.00;;;;;23.08;47.12;98428.06;4913573;28;102408;-65
2022/07/14 06:11:52;;;;;;;;;1.00;1.00;;;;;23.09;47.16;98429.72;4915018;28;102295;-65
2022/07/14 06:14:19;;;;;;;;;0.00;0.00;;;;;23.08;47.23;98433.56;4913549;28;104085;-63
2022/07/14 06:16:47;;;;;;;;;0.00;0.00;;;;;23.05;47.34;98421.19;4912921;28;102143;-64
2022/07/14 06:19:14;;;;;;;;;0.00;0.00;;;;;23.07;47.33;98415.38;4915540;28;102301;-63
2022/07/14 06:21:43;;;;;;;;;0.00;0.00;;;;;23.09;47.31;98422.25;4911561;28;102352;-64
2022/07/14 06:24:12;;;;;;;;;0.00;0.00;;;;;23.11;47.26;98424.72;4916991;28;104145;-64
2022/07/14 06:26:40;;;;;;;;;0.00;0.00;;;;;23.10;47.30;98421.13;4913078;28;102113;-63
2022/07/14 06:29:07;;;;;;;;;1.00;0.00;;;;;23.11;47.31;98433.81;4918855;28;102156;-63
2022/07/14 06:31:36;;;;;;;;;0.00;0.00;;;;;23.11;47.13;98421.97;4918986;28;103004;-63
2022/07/14 06:34:03;;;;;;;;;0.00;0.00;;;;;23.12;47.11;98431.88;4920105;28;104205;-64
2022/07/14 06:36:31;;;;;;;;;0.00;0.00;;;;;23.12;47.04;98438.22;4916468;28;102739;-63
2022/07/14 06:38:59;;;;;;;;;0.00;0.00;;;;;23.13;47.11;98431.63;4909331;28;102133;-64
2022/07/14 06:41:26;;;;;;;;;1.00;0.00;;;;;23.12;47.28;98432.72;4913952;28;102634;-64
2022/07/14 06:43:53;;;;;;;;;0.00;0.00;;;;;23.13;47.05;98428.84;4916669;28;104086;-64
2022/07/14 06:46:20;;;;;;;;;0.33;0.33;;;;;23.14;47.08;98429.69;4915047;28;102129;-64
2022/07/14 06:48:47;;;;;;;;;0.00;0.00;;;;;23.14;47.09;98435.19;4909422;28;103070;-64
2022/07/14 06:51:14;;;;;;;;;0.00;0.00;;;;;23.14;47.04;98441.50;4913527;28;102434;-64
2022/07/14 06:53:41;;;;;;;;;0.67;0.00;;;;;23.14;47.15;98432.44;4915938;28;104192;-64
2022/07/14 06:56:08;;;;;;;;;0.00;0.00;;;;;23.13;47.42;98439.88;4913858;28;102375;-64
2022/07/14 06:58:35;;;;;;;;;0.33;0.33;;;;;23.14;47.12;98432.44;4911637;28;102962;-64
2022/07/14 07:01:02;;;;;;;;;0.00;0.00;;;;;23.14;47.11;98441.50;4920689;28;102389;-64
2022/07/14 07:03:30;;;;;;;;;1.00;0.00;;;;;23.16;47.25;98443.16;4917289;28;109687;-63
2022/07/14 07:08:43;;;;;;;;;0.00;0.00;;;;;23.14;47.14;98438.75;4912806;28;102154;-63
2022/07/14 07:11:10;;;;;;;;;0.00;0.00;;;;;23.16;47.22;98437.66;4917913;28;102384;-64
2022/07/14 07:13:37;;;;;;;;;0.00;0.00;;;;;23.16;47.18;98432.13;4913858;28;104165;-63
2022/07/14 07:16:05;;;;;;;;;0.00;0.00;;;;;23.16;47.10;98432.97;4924563;28;102423;-63
2022/07/14 07:18:33;;;;;;;;;0.00;0.00;;;;;23.19;47.19;98440.66;4921085;28;102479;-64
2022/07/14 07:21:01;;;;;;;;;0.00;0.00;;;;;23.16;47.12;98435.72;4918656;28;102604;-64
2022/07/14 07:23:30;;;;;;;;;1.67;0.00;;;;;23.18;47.22;98443.72;4915093;28;104269;-63
2022/07/14 07:25:57;;;;;;;;;0.00;0.00;;;;;23.17;47.12;98434.63;4914126;28;102525;-64
2022/07/14 07:28:24;;;;;;;;;0.00;0.00;;;;;23.18;47.05;98429.94;4911777;28;102168;-63
2022/07/14 07:30:51;;;;;;;;;0.00;0.00;;;;;23.17;47.18;98431.84;4913752;28;102254;-63
2022/07/14 07:33:18;;;;;;;;;0.00;0.00;;;;;23.18;47.61;98432.69;4911671;28;104072;-64
2022/07/14 07:35:45;;;;;;;;;0.00;0.00;;;;;23.19;47.14;98428.81;4916966;28;102193;-64
2022/07/14 07:38:13;;;;;;;;;0.00;0.00;;;;;23.19;47.23;98434.34;4917590;28;102120;-63
2022/07/14 07:40:40;;;;;;;;;0.00;0.00;;;;;23.19;47.23;98437.09;4917271;28;102121;-64
2022/07/14 07:43:07;;;;;;;;;0.00;0.00;;;;;23.19;47.11;98431.59;4917729;28;104183;-64
2022/07/14 07:45:34;;;;;;;;;0.00;0.00;;;;;23.21;47.02;98432.09;4918377;28;102363;-63
2022/07/14 07:48:03;;;;;;;;;0.00;0.00;;;;;23.20;47.08;98433.22;4915322;28;102243;-63
2022/07/14 07:50:31;;;;;;;;;0.00;0.00;;;;;23.21;47.13;98434.84;4911380;28;102240;-63
2022/07/14 07:52:58;;;;;;;;;0.00;0.00;;;;;23.21;47.19;98432.94;4930001;28;104125;-63
2022/07/14 07:55:25;;;;;;;;;0.00;0.00;;;;;23.22;47.26;98433.75;4910995;28;102300;-63
2022/07/14 07:57:54;;;;;;;;;0.00;0.00;;;;;23.22;47.05;98436.50;4913168;28;102164;-63
2022/07/14 08:00:21;;;;;;;;;0.33;0.33;;;;;23.21;47.04;98429.34;4915026;28;102045;-63
2022/07/14 08:02:50;;;;;;;;;0.00;0.00;;;;;23.22;47.02;98436.50;4933367;28;104210;-63
2022/07/14 08:05:17;;;;;;;;;0.33;0.33;;;;;23.24;47.21;98434.28;4918640;28;102642;-63
2022/07/14 08:08:07;;;;;;;;;0.00;0.00;;;;;23.22;47.01;98437.34;4915681;28;102437;-63
2022/07/14 08:10:35;;;;;;;;;0.00;0.00;;;;;23.24;47.08;98439.78;4916403;28;105589;-64
2022/07/14 08:13:03;;;;;;;;;0.00;0.00;;;;;23.24;47.05;98431.53;4917188;28;104062;-63
2022/07/14 08:15:30;;;;;;;;;0.00;0.00;;;;;23.25;47.07;98444.22;4911058;28;102360;-64
2022/07/14 08:17:57;;;;;;;;;0.33;0.33;;;;;23.25;47.04;98441.44;4914349;28;102510;-64
2022/07/14 08:20:24;;;;;;;;;0.00;0.00;;;;;23.25;47.03;98441.44;4914465;28;105367;-63
2022/07/14 08:22:51;;;;;;;;;0.00;0.00;;;;;23.26;46.87;98437.59;4918963;28;104135;-63
2022/07/14 08:25:18;;;;;;;;;0.00;0.00;;;;;23.26;47.13;98448.63;4916417;28;102395;-63
2022/07/14 08:27:45;;;;;;;;;0.00;0.00;;;;;23.28;47.00;98446.41;4916060;28;102069;-64
2022/07/14 08:30:13;;;;;;;;;0.00;0.00;;;;;23.28;47.04;98443.66;4914684;28;102338;-63
2022/07/14 08:32:47;;;;;;;;;0.00;0.00;;;;;23.28;46.97;98438.94;4914464;28;104040;-64
2022/07/14 08:35:15;;;;;;;;;0.00;0.00;;;;;23.28;47.10;98436.19;4918310;28;104753;-63
2022/07/14 08:37:42;;;;;;;;;0.00;0.00;;;;;23.29;47.14;98437.00;4918926;28;102157;-63
2022/07/14 08:40:14;;;;;;;;;0.00;0.00;;;;;23.30;47.00;98433.13;4914626;28;103098;-64
2022/07/14 08:42:49;;;;;;;;;0.00;0.00;;;;;23.29;47.13;98426.78;4915952;28;104151;-63
2022/07/14 08:45:19;;;;;;;;;0.00;0.00;;;;;23.30;47.28;98422.09;4917189;28;102178;-63
2022/07/14 08:47:46;;;;;;;;;0.00;0.00;;;;;23.30;47.01;98433.13;4914201;28;102320;-64
2022/07/14 08:50:15;;;;;;;;;0.00;0.00;;;;;23.33;47.09;98432.56;4941443;28;102381;-64
2022/07/14 08:52:43;;;;;;;;;0.00;0.00;;;;;23.31;46.93;98412.72;4913299;28;104058;-64
2022/07/14 08:55:11;;;;;;;;;0.00;0.00;;;;;23.31;47.21;98415.47;4916200;28;102314;-64
2022/07/14 08:57:39;;;;;;;;;0.00;0.00;;;;;23.32;47.13;98415.19;4916701;28;102676;-63
2022/07/14 09:00:13;;;;;;;;;0.00;0.00;;;;;23.33;47.04;98414.06;4911645;28;102330;-63
2022/07/14 09:02:42;;;;;;;;;0.00;0.00;;;;;23.34;47.18;98415.72;4912214;28;104472;-63
2022/07/14 09:05:29;;;;;;;;;0.00;0.00;;;;;23.33;46.97;98413.25;4914677;28;102486;-64
2022/07/14 09:07:56;;;;;;;;;0.00;0.00;;;;;23.33;47.03;98411.31;4913730;28;102378;-63
2022/07/14 09:10:25;;;;;;;;;0.00;0.00;;;;;23.34;46.99;98423.16;4914215;28;102297;-63
2022/07/14 09:13:10;;;;;;;;;0.00;0.00;;;;;23.34;47.17;98418.47;4912686;28;104216;-63
2022/07/14 09:15:46;;;;;;;;;0.00;0.00;;;;;23.36;47.03;98423.72;4906335;28;102321;-63
2022/07/14 09:18:23;;;;;;;;;0.00;0.00;;;;;23.36;46.99;98423.72;4913458;28;102227;-64
2022/07/14 09:20:52;;;;;;;;;0.00;0.00;;;;;23.36;47.04;98421.78;4916846;28;102793;-63
2022/07/14 09:23:29;;;;;;;;;0.00;0.00;;;;;23.38;47.16;98424.25;4916823;28;105624;-63
2022/07/14 09:26:11;;;;;;;;;0.00;0.00;;;;;23.38;47.00;98419.53;4916544;28;102375;-63
2022/07/14 09:28:39;;;;;;;;;0.00;0.00;;;;;23.39;47.04;98417.63;4914122;28;102215;-63
2022/07/14 09:31:27;;;;;;;;;0.00;0.00;;;;;23.38;47.04;98416.78;4918903;28;102442;-63
2022/07/14 09:33:55;;;;;;;;;0.33;0.33;;;;;23.38;46.94;98405.75;4914342;28;104060;-64
2022/07/14 09:36:26;;;;;;;;;0.00;0.00;;;;;23.40;47.33;98411.00;4914243;28;102397;-64
2022/07/14 09:39:14;;;;;;;;;0.00;0.00;;;;;23.40;47.12;98405.47;4914321;28;102210;-63
2022/07/14 09:41:55;;;;;;;;;1.00;1.00;;;;;23.40;47.09;98416.50;4913024;28;102140;-64
2022/07/14 09:44:22;;;;;;;;;0.00;0.00;;;;;23.41;47.03;98415.41;4908543;28;104386;-64
2022/07/14 09:46:57;;;;;;;;;1.00;0.00;;;;;23.42;46.86;98419.78;4917130;28;102103;-63
2022/07/14 09:49:30;;;;;;;;;0.00;0.00;;;;;23.43;47.08;98419.50;4915350;28;102268;-63
2022/07/14 09:52:04;;;;;;;;;1.00;0.00;;;;;23.43;47.10;98415.94;4914591;28;102216;-63
2022/07/14 09:54:37;;;;;;;;;0.00;0.00;;;;;23.45;47.09;98408.22;4915586;28;109593;-64
2022/07/14 09:57:13;;;;;;;;;0.00;0.00;;;;;23.45;46.92;98410.97;4918011;28;102216;-63
2022/07/14 09:59:43;;;;;;;;;0.00;0.00;;;;;23.45;47.08;98408.22;4916209;28;104942;-63
2022/07/14 10:02:26;;;;;;;;;0.00;0.00;;;;;23.47;46.90;98405.97;4915695;28;102254;-63
2022/07/14 10:05:01;;;;;;;;;1.00;0.00;;;;;23.47;47.08;98397.69;4935971;28;104286;-63
2022/07/14 10:07:34;;;;;;;;;0.00;0.00;;;;;23.47;47.06;98394.94;4907744;28;102151;-63
2022/07/14 10:10:09;;;;;;;;;0.00;0.00;;;;;23.47;47.09;98400.47;4915851;28;102408;-64
2022/07/14 10:12:37;;;;;;;;;0.00;0.00;;;;;23.48;46.86;98394.66;4914746;28;102446;-63
2022/07/14 10:15:12;;;;;;;;;0.00;0.00;;;;;23.50;46.98;98397.16;4916121;28;104183;-63
2022/07/14 10:17:40;;;;;;;;;1.00;0.00;;;;;23.50;46.93;98388.88;4911078;28;102266;-63
2022/07/14 10:20:10;;;;;;;;;1.00;0.00;;;;;23.51;47.01;98393.25;4909479;28;102275;-63
2022/07/14 10:22:37;;;;;;;;;0.00;0.00;;;;;23.52;46.84;98386.63;4919083;28;102318;-63
2022/07/14 10:25:05;;;;;;;;;0.00;0.00;;;;;23.52;47.06;98386.63;4920240;28;103981;-63
2022/07/14 10:27:39;;;;;;;;;0.00;0.00;;;;;23.53;46.86;98378.06;4910602;28;102197;-63
2022/07/14 10:30:06;;;;;;;;;0.00;0.00;;;;;23.54;46.93;98373.38;4914389;28;102245;-63
2022/07/14 10:32:37;;;;;;;;;0.00;0.00;;;;;23.55;46.83;98381.34;4915542;28;102244;-63
2022/07/14 10:35:29;;;;;;;;;0.00;0.00;;;;;23.56;47.03;98376.66;4914218;28;109181;-64
2022/07/14 10:38:31;;;;;;;;;0.00;0.00;;;;;23.56;46.97;98365.59;4907870;28;102193;-63
2022/07/14 10:41:07;;;;;;;;;0.00;0.00;;;;;23.57;46.91;98372.78;4913576;28;102484;-63
2022/07/14 10:44:00;;;;;;;;;0.00;0.00;;;;;23.57;47.01;98367.25;4917776;28;102554;-63
2022/07/14 10:46:37;;;;;;;;;0.00;0.00;;;;;23.58;46.93;98370.84;4913241;28;109286;-63
2022/07/14 10:49:06;;;;;;;;;0.00;0.00;;;;;23.59;47.01;98376.09;4916714;28;102335;-63
2022/07/14 10:51:33;;;;;;;;;0.00;0.00;;;;;23.60;46.90;98361.13;4913864;28;102186;-63
2022/07/14 10:54:08;;;;;;;;;0.00;0.00;;;;;23.61;46.76;98356.44;4920678;28;102769;-64
2022/07/14 10:57:12;;;;;;;;;0.00;0.00;;;;;23.61;46.80;98357.28;4917413;28;107603;-64
2022/07/14 10:59:46;;;;;;;;;0.00;0.00;;;;;23.62;46.95;98350.66;4918264;28;102257;-63
2022/07/14 11:02:13;;;;;;;;;0.00;0.00;;;;;23.63;46.85;98355.06;4915972;28;102340;-63
2022/07/14 11:05:04;;;;;;;;;0.00;0.00;;;;;23.63;46.92;98351.47;4916356;28;102363;-63
2022/07/14 11:07:42;;;;;;;;;0.00;0.00;;;;;23.64;46.97;98348.41;4876735;28;108949;-63
2022/07/14 11:10:21;;;;;;;;;0.00;0.00;;;;;23.64;46.82;98337.34;4878669;28;102499;-63
2022/07/14 11:13:00;;;;;;;;;0.00;0.00;;;;;23.64;46.87;98339.31;4874024;28;102397;-63
2022/07/14 11:15:43;;;;;;;;;0.33;0.00;;;;;23.65;46.79;98344.53;4875787;28;102212;-63
2022/07/14 11:18:24;;;;;;;;;0.00;0.00;;;;;23.66;46.96;98348.94;4873784;28;108866;-63
2022/07/14 11:20:58;;;;;;;;;0.67;0.00;;;;;23.68;46.99;98343.13;4876604;28;102455;-63
2022/07/14 11:23:27;;;;;;;;;0.00;0.00;;;;;23.67;47.03;98345.06;4876589;28;102594;-63
2022/07/14 11:25:54;;;;;;;;;0.00;0.00;;;;;23.67;46.74;98336.78;4868003;28;102055;-63
2022/07/14 11:28:46;;;;;;;;;0.00;0.00;;;;;23.68;46.75;98346.72;4876021;28;104208;-63
2022/07/14 11:31:18;;;;;;;;;0.00;0.00;;;;;23.69;46.77;98342.81;4870369;28;102005;-63
2022/07/14 11:36:32;;;;;;;;;0.00;0.00;;;;;23.69;46.82;98329.03;4875049;28;102173;-63
2022/07/14 11:39:20;;;;;;;;;0.00;0.00;;;;;23.71;46.80;98339.78;4871592;28;110194;-63
2022/07/14 11:42:01;;;;;;;;;0.00;0.00;;;;;23.71;46.88;98337.84;4878462;28;102803;-63
2022/07/14 11:44:43;;;;;;;;;0.00;0.00;;;;;23.72;46.73;98330.41;4874683;28;102007;-63
2022/07/14 11:47:23;;;;;;;;;0.00;0.00;;;;;23.72;46.97;98328.47;4880391;28;103029;-63